Currently 56°F in Beaumont, California, USA
56°F
58°F / 55°F
2 mph E
0.00"
Monday, November 19, 2018 7:28 AM PST

Beaumont, California Weather Summary
Last 36 Hours

Temperature Winds Hourly Humidity Dewpoint
Time Report Norm Report Norm Max Gusts Precip. Rpt. Norm Rpt. Norm Pressure
1Mon 07:28 AM  55.9°F  57°F  2 mph E  3 mph  8 mph  0.00"  24%  44%  18°F  34°F  30.01"
3Mon 07:04 AM  55.2°F  56°F  2 mph NE  3 mph  12 mph  ----  25%  44%  18°F  33°F  30.00"
Mon 07:00 AM  55.6°F  55°F  2 mph NE  3 mph  13 mph  0.00"  24%  44%  18°F  33°F  30.00"
Mon 06:00 AM  55.9°F  54°F  9 mph NE  4 mph  15 mph  0.00"  23%  45%  17°F  33°F  29.98"
Mon 05:00 AM  55.9°F  54°F  7 mph NW  4 mph  12 mph  0.00"  23%  45%  17°F  33°F  29.98"
Mon 04:00 AM  56.5°F  54°F  7 mph N  4 mph  12 mph  0.00"  22%  47%  16°F  33°F  29.98"
Mon 03:00 AM  56.3°F  55°F  4 mph N  3 mph  12 mph  0.00"  22%  46%  16°F  33°F  29.98"
Mon 02:00 AM  57.2°F  55°F  5 mph N  3 mph  16 mph  0.00"  21%  46%  16°F  33°F  29.99"
2Mon 01:24 AM  57.7°F  55°F  9 mph N  3 mph  13 mph  ----  22%  47%  17°F  34°F  30.01"
Mon 01:00 AM  56.8°F  55°F  6 mph N  3 mph  12 mph  0.00"  22%  47%  17°F  34°F  30.01"
Mon 12:00 AM  57.4°F  55°F  7 mph NW  4 mph  13 mph  0.00"  21%  47%  16°F  34°F  30.01"
Sun 11:00 PM  56.8°F  56°F  4 mph N  4 mph  12 mph  0.00"  21%  47%  16°F  35°F  30.02"
Sun 10:00 PM  57.4°F  56°F  7 mph N  4 mph  14 mph  0.00"  20%  47%  15°F  35°F  30.02"
Sun 09:00 PM  57.4°F  56°F  9 mph N  4 mph  13 mph  0.00"  20%  46%  15°F  35°F  30.01"
Sun 08:00 PM  57.6°F  57°F  3 mph N  4 mph  9 mph  0.00"  21%  46%  16°F  35°F  30.01"
Sun 07:00 PM  57.6°F  57°F  2 mph NE  4 mph  13 mph  0.00"  23%  44%  18°F  35°F  29.99"
Sun 06:00 PM  58.5°F  58°F  5 mph N  4 mph  13 mph  0.00"  23%  42%  19°F  34°F  29.98"
Sun 05:00 PM  57.7°F  59°F  2 mph N  4 mph  10 mph  0.00"  25%  40%  21°F  34°F  29.98"
Sun 04:00 PM  60.4°F  62°F  5 mph NE  5 mph  16 mph  0.00"  24%  38%  22°F  35°F  29.97"
Sun 03:00 PM  63.1°F  64°F  8 mph E  6 mph  17 mph  0.00"  21%  36%  21°F  35°F  29.97"
Sun 02:00 PM  63.9°F  64°F  10 mph E  6 mph  24 mph  0.00"  19%  35%  19°F  35°F  29.97"
Sun 01:00 PM  64.0°F  64°F  9 mph E  7 mph  22 mph  0.00"  19%  35%  19°F  35°F  29.97"
Sun 12:00 PM  63.9°F  64°F  13 mph E  7 mph  23 mph  0.00"  18%  35%  18°F  35°F  29.98"
Sun 11:00 AM  62.2°F  63°F  12 mph NE  6 mph  21 mph  0.00"  19%  37%  18°F  35°F  30.01"
Sun 10:00 AM  63.3°F  62°F  9 mph NE  6 mph  13 mph  0.00"  19%  38%  19°F  35°F  30.01"
Sun 09:00 AM  59.7°F  60°F  3 mph E  5 mph  14 mph  0.00"  21%  41%  18°F  35°F  30.04"
Sun 08:00 AM  58.5°F  58°F  2 mph SE  4 mph  6 mph  0.00"  21%  43%  17°F  35°F  30.04"
Sun 07:00 AM  53.8°F  56°F  calm  3 mph  5 mph  0.00"  24%  44%  16°F  33°F  30.03"
Sun 06:00 AM  52.0°F  54°F  4 mph S  4 mph  6 mph  0.00"  21%  45%  11°F  32°F  30.01"
Sun 05:00 AM  51.1°F  54°F  3 mph S  4 mph  7 mph  0.00"  27%  44%  17°F  32°F  30.00"
Sun 04:00 AM  50.5°F  55°F  4 mph S  4 mph  6 mph  0.00"  36%  46%  23°F  33°F  29.99"
Sun 03:00 AM  51.1°F  55°F  calm  3 mph  3 mph  0.00"  39%  45%  26°F  33°F  29.98"
Sun 02:00 AM  50.5°F  55°F  3 mph W  4 mph  6 mph  0.00"  38%  45%  25°F  33°F  29.99"
Sun 01:00 AM  50.4°F  55°F  2 mph W  4 mph  3 mph  0.00"  45%  46%  29°F  33°F  30.00"
Sun 12:00 AM  50.5°F  55°F  calm  4 mph  none  0.00"  41%  46%  27°F  34°F  29.99"
Sat 11:00 PM  50.5°F  56°F  calm  4 mph  3 mph  0.00"  47%  46%  30°F  34°F  29.99"
Sat 10:00 PM  52.3°F  56°F  calm  4 mph  3 mph  0.00"  36%  46%  25°F  35°F  29.99"
Sat 09:00 PM  51.1°F  56°F  calm  4 mph  2 mph  0.00"  35%  46%  23°F  35°F  29.98"
Sat 08:00 PM  53.8°F  57°F  calm  4 mph  12 mph  0.00"  31%  45%  23°F  35°F  29.98"

  1. Current weather data. No green row appears if the current weather data is also the high or low for the current day.
  2. High temperature for the current day.
  3. Low temperature for the current day.

The Beaumont, California weather pages are a service of WeatherCurrents. Cherry Valley is located in northern Riverside County, California, a community of the northern part of Beaumont, along the Interstate 10 highway, in the San Gorgonio pass area, between the communities of Calimesa, Banning.
Copyright ©Mon Nov 19 07:36:34 PST 2018  WeatherCurrents. All rights reserved. - Submit questions and comments - Privacy Policy

This page automatically refreshes every 10 minutes.